Time;durP1;ratioP1;P1;durP2;ratioP2;P2;SDS_P1;SDS_P2;PMS_P1;PMS_P2;Temp;Humidity;BMP_temperature;BMP_pressure;BME280_temperature;BME280_humidity;BME280_pressure;Samples;Min_cycle;Max_cycle;Signal;HPM_P1;HPM_P2
2023/04/14 00:01:23;;;;;;;;;0.50;0.50;;;;;10.66;55.97;100333.41;4971838;28;45359;-61
2023/04/14 00:03:49;;;;;;;;;0.00;0.00;;;;;10.69;55.82;100334.88;4957558;28;45571;-61
2023/04/14 00:06:15;;;;;;;;;1.00;1.00;;;;;10.68;55.75;100334.03;4935138;28;45843;-62
2023/04/14 00:08:40;;;;;;;;;0.25;0.25;;;;;10.53;55.63;100315.16;4975338;28;45287;-60
2023/04/14 00:11:05;;;;;;;;;0.50;0.50;;;;;10.66;56.33;100338.03;4976802;28;45698;-60
2023/04/14 00:13:31;;;;;;;;;1.00;1.00;;;;;10.61;56.08;100333.22;4977184;28;45649;-61
2023/04/14 00:15:56;;;;;;;;;2.00;2.00;;;;;10.63;55.68;100328.38;4976885;28;46087;-61
2023/04/14 00:18:22;;;;;;;;;1.50;1.50;;;;;10.41;56.47;100279.31;4976599;28;45475;-61
2023/04/14 00:20:48;;;;;;;;;1.00;1.00;;;;;10.60;55.78;100316.97;4977065;28;45364;-60
2023/04/14 00:23:13;;;;;;;;;3.00;1.50;;;;;10.59;55.45;100318.91;4942947;28;45285;-59
2023/04/14 00:25:39;;;;;;;;;2.25;0.25;;;;;10.51;56.55;100311.78;4977068;28;45997;-61
2023/04/14 00:28:04;;;;;;;;;0.50;0.50;;;;;10.52;56.27;100301.66;4976327;28;45324;-60
2023/04/14 00:30:30;;;;;;;;;2.00;2.00;;;;;10.54;55.82;100315.97;4976804;28;45618;-61
2023/04/14 00:32:55;;;;;;;;;1.00;1.00;;;;;10.48;56.04;100309.47;4976871;28;45286;-61
2023/04/14 00:35:23;;;;;;;;;1.25;1.25;;;;;10.44;56.54;100311.84;4975229;28;48258;-64
2023/04/14 00:37:50;;;;;;;;;3.80;2.60;;;;;10.22;56.83;100281.13;4976186;28;45496;-61
2023/04/14 00:40:16;;;;;;;;;1.00;1.00;;;;;10.42;56.92;100315.81;4976026;28;45426;-61
2023/04/14 00:42:45;;;;;;;;;2.25;2.25;;;;;10.10;56.24;100264.56;4975096;28;45237;-59
2023/04/14 00:45:10;;;;;;;;;1.60;1.60;;;;;10.38;56.93;100298.13;4974890;28;45526;-61
2023/04/14 00:47:37;;;;;;;;;3.00;3.00;;;;;10.35;56.69;100298.56;4958571;28;45527;-61
2023/04/14 00:50:03;;;;;;;;;3.00;1.80;;;;;10.35;57.26;100299.41;4975361;28;45455;-61
2023/04/14 00:52:29;;;;;;;;;2.40;2.40;;;;;10.35;57.30;100307.63;4974823;28;45624;-60
2023/04/14 00:54:54;;;;;;;;;1.00;1.00;;;;;10.08;56.64;100268.56;4958852;28;48474;-61
2023/04/14 00:57:20;;;;;;;;;3.00;2.00;;;;;10.25;56.61;100304.53;4974831;28;45298;-61
2023/04/14 00:59:45;;;;;;;;;3.50;3.00;;;;;10.22;57.77;100299.47;4958565;28;45386;-61
2023/04/14 01:02:11;;;;;;;;;2.25;2.25;;;;;10.17;57.09;100298.25;4968346;28;45392;-61
2023/04/14 01:04:36;;;;;;;;;1.50;1.50;;;;;10.16;57.32;100302.03;4955527;28;45384;-61
2023/04/14 01:07:02;;;;;;;;;2.75;2.75;;;;;10.06;57.34;100281.66;4956689;28;45332;-62
2023/04/14 01:09:27;;;;;;;;;1.75;1.75;;;;;9.50;58.00;100197.19;4923266;28;45200;-60
2023/04/14 01:12:11;;;;;;;;;2.25;1.00;;;;;10.10;57.46;100291.97;4956669;28;45555;-60
2023/04/14 01:14:53;;;;;;;;;3.40;1.80;;;;;10.09;58.23;100295.75;4956081;28;45298;-61
2023/04/14 01:17:25;;;;;;;;;1.20;1.20;;;;;9.87;57.83;100259.63;4938939;28;45550;-61
2023/04/14 01:20:12;;;;;;;;;3.40;1.00;;;;;10.02;58.24;100290.31;4954846;28;45469;-59
2023/04/14 01:22:41;;;;;;;;;2.40;2.40;;;;;10.05;58.21;100294.53;4956226;28;45550;-61
2023/04/14 01:25:31;;;;;;;;;2.60;2.60;;;;;9.99;57.70;100279.78;4939062;28;47961;-61
2023/04/14 01:28:11;;;;;;;;;2.00;2.00;;;;;10.02;57.64;100295.81;4955991;28;45402;-62
2023/04/14 01:31:04;;;;;;;;;3.20;1.00;;;;;10.02;57.89;100294.94;4954964;28;45331;-60
2023/04/14 01:33:31;;;;;;;;;1.00;1.00;;;;;9.73;57.38;100259.66;4956597;28;45374;-61
2023/04/14 01:35:58;;;;;;;;;1.00;1.00;;;;;9.92;58.09;100294.59;4954424;28;45480;-61
2023/04/14 01:38:27;;;;;;;;;0.60;0.60;;;;;9.70;58.89;100262.00;4938839;28;45261;-60
2023/04/14 01:40:56;;;;;;;;;1.00;1.00;;;;;9.93;59.04;100290.78;4954816;28;45628;-60
2023/04/14 01:43:26;;;;;;;;;5.80;4.00;;;;;9.85;58.48;100292.72;4954882;28;45221;-61
2023/04/14 01:45:55;;;;;;;;;2.00;2.00;;;;;9.74;58.65;100290.66;4955655;28;46715;-62
2023/04/14 01:48:21;;;;;;;;;2.00;2.00;;;;;9.59;58.73;100269.00;4939024;28;45396;-61
2023/04/14 01:50:47;;;;;;;;;2.00;1.00;;;;;9.70;58.72;100297.63;4956434;28;45314;-61
2023/04/14 01:53:19;;;;;;;;;2.00;2.00;;;;;9.61;59.24;100281.44;4938808;28;45634;-61
2023/04/14 01:55:46;;;;;;;;;2.00;2.00;;;;;9.55;58.93;100262.31;4923480;28;48218;-62
2023/04/14 01:58:11;;;;;;;;;4.60;2.00;;;;;9.76;58.71;100294.03;4955760;28;45348;-61
2023/04/14 02:00:37;;;;;;;;;1.75;1.25;;;;;9.67;59.48;100287.97;4955726;28;45360;-59
2023/04/14 02:03:05;;;;;;;;;3.00;2.00;;;;;9.50;59.51;100262.94;4931030;28;45553;-62
2023/04/14 02:05:32;;;;;;;;;2.00;2.00;;;;;9.65;58.85;100278.28;4954656;28;46179;-61
2023/04/14 02:07:57;;;;;;;;;3.20;3.20;;;;;9.63;59.07;100282.09;4954266;28;45464;-61
2023/04/14 02:10:23;;;;;;;;;2.00;2.00;;;;;9.70;59.41;100295.75;4954526;28;45368;-61
2023/04/14 02:12:48;;;;;;;;;2.00;2.00;;;;;9.69;58.39;100299.53;4954678;28;45493;-61
2023/04/14 02:15:16;;;;;;;;;2.00;1.00;;;;;9.61;58.67;100288.84;4955385;28;46048;-61
2023/04/14 02:17:46;;;;;;;;;0.20;0.00;;;;;9.45;58.99;100274.53;4954365;28;45410;-60
2023/04/14 02:20:12;;;;;;;;;1.00;1.00;;;;;9.57;59.71;100296.66;4938336;28;45479;-61
2023/04/14 02:22:37;;;;;;;;;2.00;2.00;;;;;9.57;59.64;100304.00;4955526;28;45473;-60
2023/04/14 02:25:03;;;;;;;;;1.00;1.00;;;;;9.54;59.91;100297.06;4953817;28;47339;-61
2023/04/14 02:27:34;;;;;;;;;3.00;1.25;;;;;9.44;60.16;100285.75;4954410;28;45380;-61
2023/04/14 02:30:02;;;;;;;;;2.20;1.40;;;;;9.43;59.63;100282.16;4956874;28;45399;-61
2023/04/14 02:32:28;;;;;;;;;2.20;2.20;;;;;9.50;59.87;100293.06;4925780;28;45471;-61
2023/04/14 02:35:07;;;;;;;;;2.60;2.00;;;;;9.46;59.29;100286.34;4941272;28;45539;-61
2023/04/14 02:37:35;;;;;;;;;1.40;1.40;;;;;9.47;59.67;100288.03;4957419;28;45336;-61
2023/04/14 02:40:05;;;;;;;;;4.00;2.80;;;;;9.47;59.62;100286.16;4956331;28;45459;-61
2023/04/14 02:42:31;;;;;;;;;2.80;2.80;;;;;9.42;60.10;100272.25;4957181;28;45437;-61
2023/04/14 02:45:05;;;;;;;;;3.00;3.00;;;;;9.34;59.68;100273.31;4955451;28;46079;-61
2023/04/14 02:47:32;;;;;;;;;3.80;2.00;;;;;9.19;59.77;100246.19;4965449;28;45245;-61
2023/04/14 02:49:58;;;;;;;;;5.00;2.00;;;;;9.20;59.66;100245.16;4957860;28;45454;-61
2023/04/14 02:52:23;;;;;;;;;3.00;3.00;;;;;8.99;60.17;100221.59;4957487;28;45652;-62
2023/04/14 02:54:49;;;;;;;;;8.25;3.75;;;;;9.10;60.26;100239.28;4956842;28;46945;-61
2023/04/14 02:57:14;;;;;;;;;4.00;4.00;;;;;9.30;60.79;100265.75;4957171;28;45318;-61
2023/04/14 02:59:41;;;;;;;;;7.00;2.50;;;;;9.17;60.90;100245.56;4956666;28;45417;-62
2023/04/14 03:02:08;;;;;;;;;5.20;3.60;;;;;9.26;60.41;100259.00;4945992;28;45585;-61
2023/04/14 03:04:34;;;;;;;;;2.00;2.00;;;;;9.21;60.51;100254.19;4977143;28;46433;-61
2023/04/14 03:07:05;;;;;;;;;3.40;3.40;;;;;9.23;60.68;100254.81;4976258;28;45472;-59
2023/04/14 03:09:31;;;;;;;;;1.20;1.00;;;;;9.18;60.95;100255.44;4944431;28;45730;-61
2023/04/14 03:11:57;;;;;;;;;3.25;3.25;;;;;8.87;61.05;100207.75;4975373;28;45467;-61
2023/04/14 03:14:22;;;;;;;;;3.00;3.00;;;;;8.98;61.79;100233.63;4976343;28;45475;-61
2023/04/14 03:16:51;;;;;;;;;3.00;3.00;;;;;8.93;61.40;100217.81;4977526;28;45387;-62
2023/04/14 03:19:22;;;;;;;;;3.80;2.80;;;;;9.11;61.30;100242.84;4968711;28;45319;-60
2023/04/14 03:21:49;;;;;;;;;4.00;4.00;;;;;9.07;61.29;100231.47;4941405;28;45422;-61
2023/04/14 03:24:19;;;;;;;;;2.00;2.00;;;;;9.06;61.11;100241.59;4958028;28;46481;-61
2023/04/14 03:26:45;;;;;;;;;7.20;4.40;;;;;8.94;61.81;100216.78;4956690;28;45616;-61
2023/04/14 03:29:11;;;;;;;;;2.00;1.60;;;;;8.99;61.53;100234.44;4956959;28;45426;-61
2023/04/14 03:31:37;;;;;;;;;4.00;2.25;;;;;8.97;61.51;100237.41;4957912;28;45389;-61
2023/04/14 03:34:03;;;;;;;;;3.25;3.25;;;;;9.03;61.95;100242.00;4956488;28;45709;-61
2023/04/14 03:36:29;;;;;;;;;2.00;2.00;;;;;9.03;61.13;100233.78;4956506;28;45461;-62
2023/04/14 03:38:57;;;;;;;;;3.80;2.20;;;;;8.97;62.15;100231.09;4956672;28;45418;-61
2023/04/14 03:41:22;;;;;;;;;3.00;3.00;;;;;9.02;61.47;100236.78;4957830;28;45643;-60
2023/04/14 03:43:48;;;;;;;;;3.75;3.75;;;;;8.97;61.91;100244.78;4957510;28;45489;-61
2023/04/14 03:46:14;;;;;;;;;2.50;2.25;;;;;8.98;61.84;100241.81;4940515;28;45395;-62
2023/04/14 03:48:41;;;;;;;;;3.50;2.00;;;;;8.95;61.73;100244.97;4956011;28;45445;-60
2023/04/14 03:51:07;;;;;;;;;6.00;3.60;;;;;8.77;62.03;100201.88;4940968;28;45807;-61
2023/04/14 03:53:33;;;;;;;;;3.00;2.60;;;;;8.68;61.47;100180.22;4940072;28;45549;-60
2023/04/14 03:55:59;;;;;;;;;3.25;3.00;;;;;9.00;62.46;100239.72;4939687;28;45562;-60
2023/04/14 03:58:24;;;;;;;;;3.25;3.25;;;;;8.98;61.71;100235.50;4940371;28;45372;-60
2023/04/14 04:00:50;;;;;;;;;3.00;3.00;;;;;8.72;61.91;100205.25;4957389;28;45530;-62
2023/04/14 04:03:15;;;;;;;;;3.00;3.00;;;;;8.72;61.92;100199.78;4966879;28;46521;-61
2023/04/14 04:05:42;;;;;;;;;3.75;2.00;;;;;8.92;62.64;100226.25;4934750;28;45399;-61
2023/04/14 04:08:07;;;;;;;;;6.20;3.20;;;;;8.89;62.25;100233.00;4957587;28;45236;-61
2023/04/14 04:10:33;;;;;;;;;7.25;4.00;;;;;8.66;62.38;100190.50;4956319;28;45943;-61
2023/04/14 04:13:00;;;;;;;;;3.00;2.60;;;;;8.93;62.57;100222.47;4939351;28;48516;-60
2023/04/14 04:15:27;;;;;;;;;2.80;2.80;;;;;8.85;61.92;100200.81;4957042;28;45359;-60
2023/04/14 04:17:52;;;;;;;;;2.60;2.40;;;;;8.81;62.46;100209.44;4956017;28;45395;-61
2023/04/14 04:20:18;;;;;;;;;3.00;3.00;;;;;8.93;62.58;100225.19;4971738;28;45460;-60
2023/04/14 04:22:43;;;;;;;;;4.25;3.00;;;;;8.90;62.11;100222.88;4956884;28;45476;-62
2023/04/14 04:25:09;;;;;;;;;3.75;3.75;;;;;8.48;62.72;100163.78;4955524;28;45454;-62
2023/04/14 04:27:34;;;;;;;;;3.75;3.75;;;;;8.86;61.94;100214.25;4957054;28;45387;-62
2023/04/14 04:30:00;;;;;;;;;6.25;4.00;;;;;8.86;62.02;100217.00;4955717;28;45291;-61
2023/04/14 04:32:26;;;;;;;;;6.00;3.25;;;;;8.63;62.67;100192.81;4955527;28;46093;-61
2023/04/14 04:34:51;;;;;;;;;6.75;5.00;;;;;8.76;62.58;100211.94;4955248;28;45395;-61
2023/04/14 04:37:18;;;;;;;;;3.50;3.00;;;;;8.40;62.79;100164.00;4955326;28;45270;-61
2023/04/14 04:39:43;;;;;;;;;2.80;2.80;;;;;8.28;62.99;100152.88;4955764;28;45297;-61
2023/04/14 04:42:09;;;;;;;;;5.75;5.75;;;;;8.60;63.03;100196.00;4933091;28;45700;-61
2023/04/14 04:44:35;;;;;;;;;3.00;3.00;;;;;8.53;64.33;100202.31;4901351;28;45547;-61
2023/04/14 04:47:00;;;;;;;;;4.25;3.50;;;;;8.52;63.17;100203.38;4936556;28;45722;-62
2023/04/14 04:49:26;;;;;;;;;4.75;4.75;;;;;8.36;63.53;100171.78;4936490;28;45392;-60
2023/04/14 04:51:51;;;;;;;;;5.25;3.50;;;;;8.56;63.68;100192.00;4919971;28;48328;-61
2023/04/14 04:54:17;;;;;;;;;4.00;4.00;;;;;8.53;63.43;100191.38;4935305;28;45929;-61
2023/04/14 04:56:43;;;;;;;;;6.25;6.00;;;;;8.54;63.63;100190.31;4937670;28;45480;-62
2023/04/14 04:59:08;;;;;;;;;4.75;3.50;;;;;8.57;63.13;100190.94;4937569;28;45402;-61
2023/04/14 05:01:34;;;;;;;;;6.25;6.25;;;;;8.39;63.56;100179.56;4937260;28;45473;-59
2023/04/14 05:04:00;;;;;;;;;5.75;3.75;;;;;8.45;63.38;100193.44;4963328;28;45360;-60
2023/04/14 05:06:26;;;;;;;;;5.25;5.25;;;;;8.18;63.83;100130.56;4975889;28;45438;-61
2023/04/14 05:08:55;;;;;;;;;5.80;4.00;;;;;8.46;63.86;100189.66;4975180;28;45538;-61
2023/04/14 05:11:21;;;;;;;;;5.60;3.40;;;;;8.39;63.48;100176.81;4974360;28;46756;-61
2023/04/14 05:13:46;;;;;;;;;3.00;3.00;;;;;8.39;63.81;100179.56;4975054;28;45402;-60
2023/04/14 05:16:15;;;;;;;;;6.00;4.00;;;;;8.39;63.38;100178.72;4974968;28;45507;-61
2023/04/14 05:18:41;;;;;;;;;6.60;5.20;;;;;8.24;64.04;100154.34;4975785;28;45307;-61
2023/04/14 05:21:11;;;;;;;;;6.75;6.75;;;;;8.36;63.74;100170.94;4958213;28;47578;-60
2023/04/14 05:23:37;;;;;;;;;5.60;4.80;;;;;8.13;63.91;100131.22;4975204;28;45495;-61
2023/04/14 05:26:03;;;;;;;;;6.00;6.00;;;;;8.28;64.00;100163.81;4974755;28;45443;-61
2023/04/14 05:28:29;;;;;;;;;7.75;6.50;;;;;8.25;64.11;100156.00;4974594;28;45584;-61
2023/04/14 05:30:54;;;;;;;;;7.00;5.50;;;;;8.19;64.04;100143.19;4974152;28;45759;-60
2023/04/14 05:33:20;;;;;;;;;6.50;3.75;;;;;8.25;64.69;100173.28;4974473;28;45513;-61
2023/04/14 05:35:46;;;;;;;;;7.00;5.25;;;;;8.20;64.89;100159.38;4975706;28;45365;-61
2023/04/14 05:38:12;;;;;;;;;7.25;5.75;;;;;8.26;64.50;100154.97;4958621;28;45529;-62
2023/04/14 05:40:38;;;;;;;;;8.40;6.00;;;;;8.34;64.32;100156.66;4973454;28;45670;-61
2023/04/14 05:43:03;;;;;;;;;7.00;5.50;;;;;8.32;64.46;100148.66;4975801;28;45371;-60
2023/04/14 05:45:29;;;;;;;;;6.00;6.00;;;;;8.20;63.88;100136.66;4974476;28;45847;-61
2023/04/14 05:47:54;;;;;;;;;6.00;5.75;;;;;8.11;64.71;100138.78;4974217;28;45300;-61
2023/04/14 05:50:21;;;;;;;;;5.75;5.75;;;;;8.20;64.53;100162.13;4975227;28;46854;-59
2023/04/14 05:52:47;;;;;;;;;3.60;3.60;;;;;8.09;65.36;100157.28;4975466;28;45897;-63
2023/04/14 05:55:12;;;;;;;;;7.00;6.00;;;;;7.87;65.67;100124.69;4975665;28;45824;-59
2023/04/14 05:57:38;;;;;;;;;6.00;6.00;;;;;8.06;65.05;100146.78;4973824;28;45740;-60
2023/04/14 06:00:06;;;;;;;;;10.50;6.75;;;;;8.12;65.19;100138.56;4975237;28;46014;-60
2023/04/14 06:02:31;;;;;;;;;6.80;6.00;;;;;8.14;65.16;100139.22;4972887;28;45395;-61
2023/04/14 06:04:58;;;;;;;;;6.25;6.00;;;;;8.17;65.01;100148.84;4956976;28;45263;-60
2023/04/14 06:07:24;;;;;;;;;7.00;6.00;;;;;8.18;64.98;100133.31;4958257;28;45384;-58
2023/04/14 06:09:50;;;;;;;;;9.25;7.25;;;;;8.27;64.84;100149.28;4959056;28;47472;-57
2023/04/14 06:12:15;;;;;;;;;7.00;7.00;;;;;8.28;64.76;100136.47;4959252;28;45417;-61
2023/04/14 06:14:41;;;;;;;;;7.00;7.00;;;;;8.28;64.81;100129.09;4959445;28;45380;-61
2023/04/14 06:17:06;;;;;;;;;9.00;6.00;;;;;8.21;64.58;100108.31;4941829;28;45414;-60
2023/04/14 06:19:32;;;;;;;;;8.25;7.75;;;;;8.45;64.66;100139.59;4959182;28;45847;-59
2023/04/14 06:21:57;;;;;;;;;10.50;8.25;;;;;8.41;64.38;100122.78;4957384;28;45940;-62
2023/04/14 06:24:23;;;;;;;;;10.50;8.75;;;;;8.54;64.75;100132.06;4959181;28;45411;-58
2023/04/14 06:26:48;;;;;;;;;14.50;9.00;;;;;8.55;64.75;100131.00;4959326;28;45287;-62
2023/04/14 06:29:14;;;;;;;;;12.00;9.25;;;;;8.49;64.86;100134.53;4959158;28;45998;-61
2023/04/14 06:31:39;;;;;;;;;7.00;7.00;;;;;8.51;64.81;100138.78;4958838;28;45724;-63
2023/04/14 06:34:05;;;;;;;;;11.25;11.25;;;;;8.52;64.49;100139.59;4957767;28;45340;-60
2023/04/14 06:36:31;;;;;;;;;11.25;11.25;;;;;8.52;64.77;100129.53;4959284;28;45642;-59
2023/04/14 06:38:57;;;;;;;;;13.40;11.20;;;;;8.38;64.11;100109.50;4957224;28;46631;-65
2023/04/14 06:41:23;;;;;;;;;11.25;9.25;;;;;8.56;64.50;100123.59;4920148;28;46049;-62
2023/04/14 06:43:48;;;;;;;;;15.75;12.50;;;;;8.45;64.44;100105.94;4978259;28;45460;-61
2023/04/14 06:46:14;;;;;;;;;10.50;8.75;;;;;8.60;64.69;100119.41;4978173;28;45599;-60
2023/04/14 06:48:39;;;;;;;;;15.75;13.50;;;;;8.56;64.31;100116.25;4976391;28;48093;-61
2023/04/14 06:51:09;;;;;;;;;14.75;14.75;;;;;8.63;64.23;100102.53;4976742;28;45365;-62
2023/04/14 06:53:34;;;;;;;;;16.20;15.40;;;;;8.58;64.28;100094.16;4978151;28;45579;-61
2023/04/14 06:56:00;;;;;;;;;15.50;13.00;;;;;8.62;64.49;100098.13;4978058;28;45605;-60
2023/04/14 06:58:26;;;;;;;;;17.25;14.25;;;;;8.61;64.84;100096.47;4978007;28;46502;-60
2023/04/14 07:00:56;;;;;;;;;17.40;15.40;;;;;8.53;64.56;100076.50;4977663;28;45642;-61
2023/04/14 07:03:21;;;;;;;;;17.40;17.40;;;;;8.66;64.60;100093.91;4954630;28;45510;-62
2023/04/14 07:05:47;;;;;;;;;14.50;12.75;;;;;8.57;64.42;100085.09;4958763;28;45432;-61
2023/04/14 07:08:13;;;;;;;;;15.00;15.00;;;;;8.71;64.53;100105.06;4958630;28;45508;-61
2023/04/14 07:10:38;;;;;;;;;17.50;16.00;;;;;8.78;64.75;100096.81;4957631;28;45382;-62
2023/04/14 07:13:03;;;;;;;;;17.00;16.00;;;;;8.79;64.14;100088.41;4958610;28;45560;-59
2023/04/14 07:15:29;;;;;;;;;15.75;11.75;;;;;8.89;64.77;100098.03;4958253;28;45367;-58
2023/04/14 07:17:55;;;;;;;;;20.50;15.75;;;;;8.94;64.74;100092.75;4957939;28;45896;-61
2023/04/14 07:20:21;;;;;;;;;15.60;14.00;;;;;8.95;64.10;100098.03;4956637;28;45414;-60
2023/04/14 07:22:46;;;;;;;;;11.75;11.50;;;;;8.79;64.06;100068.41;4958212;28;45797;-62
2023/04/14 07:25:12;;;;;;;;;11.00;10.75;;;;;8.95;63.98;100094.44;4957875;28;46035;-62
2023/04/14 07:27:37;;;;;;;;;11.75;11.75;;;;;8.96;63.86;100093.38;4957467;28;45688;-61
2023/04/14 07:30:03;;;;;;;;;17.75;14.00;;;;;8.94;63.72;100088.13;4956546;28;45396;-61
2023/04/14 07:32:29;;;;;;;;;16.80;14.40;;;;;8.86;64.13;100087.53;4956584;28;45371;-61
2023/04/14 07:34:56;;;;;;;;;13.00;12.25;;;;;8.84;64.83;100076.81;4957997;28;45573;-61
2023/04/14 07:37:22;;;;;;;;;11.60;9.40;;;;;8.84;64.70;100078.69;4957330;28;45430;-61
2023/04/14 07:39:47;;;;;;;;;18.00;13.00;;;;;8.88;64.00;100078.06;4956803;28;46235;-61
2023/04/14 07:42:13;;;;;;;;;12.50;12.00;;;;;8.97;64.58;100075.06;4934406;28;45635;-61
2023/04/14 07:44:38;;;;;;;;;15.75;14.00;;;;;9.05;63.78;100078.41;4953163;28;45490;-59
2023/04/14 07:47:04;;;;;;;;;14.50;14.25;;;;;9.14;64.32;100059.81;4957685;28;45393;-60
2023/04/14 07:49:30;;;;;;;;;14.50;14.50;;;;;9.18;63.33;100047.34;4957434;28;45880;-60
2023/04/14 07:51:56;;;;;;;;;8.00;8.00;;;;;9.19;63.37;100038.09;4956292;28;45406;-60
2023/04/14 07:54:22;;;;;;;;;12.00;10.75;;;;;9.30;63.03;100047.53;4958203;28;45562;-60
2023/04/14 07:56:47;;;;;;;;;11.40;9.60;;;;;9.38;63.83;100051.88;4958118;28;45300;-61
2023/04/14 07:59:13;;;;;;;;;10.00;9.50;;;;;9.36;63.25;100046.59;4957644;28;45243;-63
2023/04/14 08:01:39;;;;;;;;;12.25;12.25;;;;;9.30;63.96;100039.31;4956343;28;45381;-61
2023/04/14 08:04:04;;;;;;;;;11.75;11.75;;;;;9.16;63.51;100022.09;4969255;28;45221;-63
2023/04/14 08:06:30;;;;;;;;;11.25;10.75;;;;;9.24;63.17;100039.34;4958843;28;47013;-62
2023/04/14 08:08:55;;;;;;;;;17.00;11.50;;;;;9.26;64.05;100038.06;4933025;28;45518;-64
2023/04/14 08:11:21;;;;;;;;;12.00;11.00;;;;;9.13;63.82;100000.63;4955456;28;45512;-60
2023/04/14 08:13:48;;;;;;;;;8.50;8.50;;;;;9.08;63.65;99987.59;4956396;28;45488;-61
2023/04/14 08:16:14;;;;;;;;;13.00;9.20;;;;;9.29;64.05;100034.84;4954173;28;47618;-61
2023/04/14 08:18:41;;;;;;;;;8.20;8.20;;;;;9.28;64.09;100043.31;4954759;28;45350;-61
2023/04/14 08:21:06;;;;;;;;;11.40;10.40;;;;;9.09;63.93;100002.16;4956313;28;45304;-62
2023/04/14 08:23:32;;;;;;;;;7.00;7.00;;;;;9.34;63.65;100031.47;4956748;28;45588;-62
2023/04/14 08:25:58;;;;;;;;;7.00;7.00;;;;;9.41;64.11;100032.28;4954218;28;45687;-62
2023/04/14 08:28:24;;;;;;;;;9.25;6.00;;;;;9.38;64.05;100031.88;4937211;28;46684;-62
2023/04/14 08:30:49;;;;;;;;;8.00;7.00;;;;;9.41;63.80;100036.91;4951889;28;45405;-62
2023/04/14 08:33:15;;;;;;;;;6.75;5.50;;;;;9.30;63.52;100031.09;4956293;28;45561;-62
2023/04/14 08:35:41;;;;;;;;;5.25;5.25;;;;;9.29;64.30;100017.59;4963413;28;46483;-62
2023/04/14 08:38:06;;;;;;;;;4.00;4.00;;;;;9.15;64.00;99994.94;4953879;28;45605;-61
2023/04/14 08:40:42;;;;;;;;;4.00;4.00;;;;;9.44;63.67;100025.50;4919639;28;45727;-61
2023/04/14 08:43:07;;;;;;;;;6.20;4.00;;;;;9.46;64.22;100026.13;4954425;28;45576;-62
2023/04/14 08:45:33;;;;;;;;;8.00;4.50;;;;;9.54;63.50;100027.75;4923018;28;46209;-61
2023/04/14 08:47:59;;;;;;;;;6.00;5.00;;;;;9.52;63.88;100006.06;4934373;28;45536;-63
2023/04/14 08:50:26;;;;;;;;;8.00;7.00;;;;;9.65;63.20;100017.97;4918212;28;45549;-63
2023/04/14 08:52:54;;;;;;;;;4.00;4.00;;;;;9.67;63.77;100016.69;4968607;28;45334;-63
2023/04/14 08:55:19;;;;;;;;;4.00;4.00;;;;;9.62;63.55;99986.38;4942436;28;47597;-64
2023/04/14 08:57:45;;;;;;;;;7.00;6.00;;;;;9.74;62.97;100009.25;4952055;28;45576;-66
2023/04/14 09:00:11;;;;;;;;;3.00;3.00;;;;;9.81;63.25;100013.84;4938387;28;45405;-64
2023/04/14 09:02:38;;;;;;;;;5.20;5.20;;;;;9.86;62.84;100009.34;4954583;28;45532;-64
2023/04/14 09:05:05;;;;;;;;;7.60;6.60;;;;;9.89;62.87;100005.31;4955214;28;45354;-65
2023/04/14 09:07:32;;;;;;;;;7.00;4.80;;;;;9.93;62.31;100001.03;4952641;28;45510;-63
2023/04/14 09:09:57;;;;;;;;;5.60;5.20;;;;;9.87;62.65;99983.59;4940022;28;45408;-64
2023/04/14 09:12:24;;;;;;;;;3.00;3.00;;;;;9.97;63.01;99996.78;4938411;28;45588;-67
2023/04/14 09:14:50;;;;;;;;;6.60;4.00;;;;;9.79;62.49;99952.91;4954642;28;46292;-62
2023/04/14 09:17:16;;;;;;;;;6.00;6.00;;;;;10.00;62.35;99990.88;4954445;28;45490;-63
2023/04/14 09:19:41;;;;;;;;;8.00;6.00;;;;;9.90;62.80;99987.81;4955533;28;45607;-62
2023/04/14 09:22:07;;;;;;;;;4.00;3.00;;;;;9.63;62.04;99942.31;4954342;28;45624;-62
2023/04/14 09:24:33;;;;;;;;;5.50;5.50;;;;;9.88;62.55;99979.78;4953509;28;45627;-62
2023/04/14 09:27:04;;;;;;;;;4.00;4.00;;;;;9.81;62.58;99956.28;4953900;28;45513;-62
2023/04/14 09:29:30;;;;;;;;;4.40;4.40;;;;;9.58;63.08;99936.69;4955998;28;45318;-62
2023/04/14 09:31:55;;;;;;;;;4.00;4.00;;;;;9.76;63.76;99967.91;4937863;28;45352;-65
2023/04/14 09:34:21;;;;;;;;;5.50;3.00;;;;;9.79;62.95;99961.97;4957552;28;45738;-62
2023/04/14 09:37:06;;;;;;;;;2.50;2.50;;;;;9.84;63.59;99951.19;4957413;28;45389;-62
2023/04/14 09:39:32;;;;;;;;;2.80;2.80;;;;;9.87;63.22;99944.41;4952850;28;45579;-64
2023/04/14 09:41:58;;;;;;;;;4.40;2.80;;;;;9.93;63.18;99954.44;4974183;28;47273;-61
2023/04/14 09:44:24;;;;;;;;;2.40;2.40;;;;;9.86;62.83;99932.59;4970750;28;45902;-63
2023/04/14 09:46:56;;;;;;;;;4.00;4.00;;;;;9.98;63.42;99956.53;4942040;28;45821;-67
2023/04/14 09:49:21;;;;;;;;;3.80;3.80;;;;;9.87;63.12;99926.03;4973994;28;45466;-66
2023/04/14 09:51:47;;;;;;;;;4.00;4.00;;;;;10.00;63.15;99919.59;4957278;28;45397;-65
2023/04/14 09:54:21;;;;;;;;;3.60;2.00;;;;;10.13;62.82;99932.28;4955740;28;45931;-63
2023/04/14 09:56:47;;;;;;;;;7.60;3.00;;;;;10.23;62.74;99933.66;4970721;28;45554;-63
2023/04/14 09:59:12;;;;;;;;;4.00;3.00;;;;;10.33;62.83;99933.97;4973368;28;45528;-63
2023/04/14 10:01:38;;;;;;;;;3.50;1.00;;;;;10.36;62.71;99936.22;4975146;28;45456;-62
2023/04/14 10:04:03;;;;;;;;;4.25;3.00;;;;;10.43;62.19;99931.56;4982685;28;48370;-63
2023/04/14 10:06:32;;;;;;;;;2.00;2.00;;;;;10.46;62.02;99932.16;4988521;28;45475;-63
2023/04/14 10:08:58;;;;;;;;;1.80;1.80;;;;;10.47;62.36;99926.44;4973927;28;46361;-63
2023/04/14 10:11:34;;;;;;;;;4.00;2.00;;;;;10.46;62.11;99923.91;4973693;28;45383;-62
2023/04/14 10:14:02;;;;;;;;;3.80;2.80;;;;;10.44;62.76;99929.63;4972615;28;45861;-64
2023/04/14 10:16:28;;;;;;;;;3.60;1.80;;;;;10.43;62.72;99923.31;4974086;28;45533;-61
2023/04/14 10:18:54;;;;;;;;;7.50;5.75;;;;;10.42;62.41;99921.63;4972738;28;45412;-65
2023/04/14 10:21:21;;;;;;;;;2.00;2.00;;;;;10.36;62.00;99897.00;4947622;28;45514;-62
2023/04/14 10:23:47;;;;;;;;;3.00;1.60;;;;;10.46;62.35;99922.00;4937011;28;46093;-63
2023/04/14 10:26:13;;;;;;;;;4.20;2.60;;;;;10.45;62.50;99914.84;4952511;28;45754;-62
2023/04/14 10:28:44;;;;;;;;;2.75;2.25;;;;;10.39;62.31;99897.38;4953207;28;45417;-63
2023/04/14 10:31:39;;;;;;;;;1.60;1.00;;;;;10.45;62.00;99903.88;4937598;28;45874;-62
2023/04/14 10:34:09;;;;;;;;;2.20;2.20;;;;;10.45;62.42;99901.13;4951893;28;46445;-61
2023/04/14 10:36:36;;;;;;;;;2.20;2.20;;;;;10.45;61.46;99895.63;4952808;28;45501;-62
2023/04/14 10:39:04;;;;;;;;;1.60;0.60;;;;;10.41;61.57;99891.66;4943847;28;45465;-62
2023/04/14 10:41:55;;;;;;;;;2.20;2.00;;;;;10.37;62.25;99887.69;4983080;28;45442;-63
2023/04/14 10:44:28;;;;;;;;;2.00;1.00;;;;;10.32;62.21;99871.94;4966173;28;45858;-64
2023/04/14 10:46:55;;;;;;;;;2.60;2.60;;;;;10.40;61.65;99876.25;4926187;28;45576;-63
2023/04/14 10:49:37;;;;;;;;;2.40;2.00;;;;;10.38;62.08;99881.16;4949902;28;45860;-62
2023/04/14 10:52:11;;;;;;;;;7.60;3.00;;;;;10.43;62.35;99882.19;4957502;28;45511;-62
2023/04/14 10:54:54;;;;;;;;;4.00;3.00;;;;;10.46;61.91;99866.31;4957186;28;46343;-62
2023/04/14 10:57:23;;;;;;;;;3.80;2.40;;;;;10.62;61.65;99876.63;4952216;28;45434;-60
2023/04/14 10:59:55;;;;;;;;;2.20;1.60;;;;;10.75;61.56;99869.25;4938531;28;45331;-62
2023/04/14 11:02:22;;;;;;;;;1.40;1.40;;;;;10.72;61.75;99856.84;4937769;28;45372;-63
2023/04/14 11:05:04;;;;;;;;;2.60;1.80;;;;;10.68;61.22;99842.75;4961714;28;45513;-61
2023/04/14 11:07:36;;;;;;;;;7.00;2.00;;;;;10.75;61.54;99841.81;4975560;28;45334;-63
2023/04/14 11:10:20;;;;;;;;;3.00;3.00;;;;;10.85;61.44;99861.28;4967498;28;45512;-62
2023/04/14 11:12:57;;;;;;;;;4.00;4.00;;;;;10.81;62.05;99849.94;4959441;28;45627;-59
2023/04/14 11:15:22;;;;;;;;;2.00;2.00;;;;;10.84;62.82;99843.97;4952190;28;46294;-62
2023/04/14 11:17:48;;;;;;;;;2.25;2.25;;;;;10.60;62.60;99803.81;4954952;28;45513;-63
2023/04/14 11:20:18;;;;;;;;;3.25;3.25;;;;;10.62;63.19;99799.78;4953898;28;45781;-62
2023/04/14 11:22:44;;;;;;;;;2.60;2.40;;;;;10.88;63.99;99838.84;4949884;28;45712;-60
2023/04/14 11:25:20;;;;;;;;;6.20;5.00;;;;;10.90;63.85;99824.91;4936705;28;47533;-62
2023/04/14 11:27:47;;;;;;;;;2.80;2.80;;;;;10.97;64.33;99823.72;4934793;28;45787;-62
2023/04/14 11:30:14;;;;;;;;;7.20;2.80;;;;;11.01;64.18;99826.81;4936317;28;45944;-63
2023/04/14 11:32:53;;;;;;;;;3.00;2.00;;;;;11.07;64.14;99823.13;4954696;28;45376;-62